Terminal Aerodrome Forecast
Issued by NWS Indianapolis, IN

Home | Current Version | Previous Version | Text Only | Print | Product List | Glossary On
Versions: 1 2 3 4 5 6 7 8 9 10 11 12 13 14 15 16 17 18 19 20 21 22 23 24 25 26 27 28 29 30 31 32 33 34 35 36
000
FTUS43 KIND 260800 AAA
TAFIND
TAF AMD
KIND 260819Z 2608/2712 01014KT P6SM SCT015 BKN030
     FM261400 32008KT P6SM SCT025 BKN150
     FM270600 08004KT 5SM BR OVC020=

USA.gov is the U.S. government's official web portal to all federal, state and local government web resources and services.